sensor_id;sensor_type;location;lat;lon;timestamp;P1;durP1;ratioP1;P2;durP2;ratioP2
49396;SDS011;35615;41.410;2.194;2022-10-18T00:00:07;27.20;;;7.47;;
49396;SDS011;35615;41.410;2.194;2022-10-18T00:02:36;25.15;;;8.30;;
49396;SDS011;35615;41.410;2.194;2022-10-18T00:05:04;36.67;;;10.50;;
49396;SDS011;35615;41.410;2.194;2022-10-18T00:07:31;20.63;;;9.02;;
49396;SDS011;35615;41.410;2.194;2022-10-18T00:09:59;22.40;;;8.75;;
49396;SDS011;35615;41.410;2.194;2022-10-18T00:12:26;18.27;;;8.15;;
49396;SDS011;35615;41.410;2.194;2022-10-18T00:14:54;18.58;;;8.48;;
49396;SDS011;35615;41.410;2.194;2022-10-18T00:17:21;17.75;;;7.82;;
49396;SDS011;35615;41.410;2.194;2022-10-18T00:19:48;20.75;;;8.10;;
49396;SDS011;35615;41.410;2.194;2022-10-18T00:22:16;28.55;;;10.05;;
49396;SDS011;35615;41.410;2.194;2022-10-18T00:24:43;24.85;;;9.18;;
49396;SDS011;35615;41.410;2.194;2022-10-18T00:27:11;23.20;;;9.10;;
49396;SDS011;35615;41.410;2.194;2022-10-18T00:29:38;25.48;;;9.13;;
49396;SDS011;35615;41.410;2.194;2022-10-18T00:32:05;19.67;;;8.27;;
49396;SDS011;35615;41.410;2.194;2022-10-18T00:34:32;28.00;;;8.95;;
49396;SDS011;35615;41.410;2.194;2022-10-18T00:37:00;25.00;;;8.48;;
49396;SDS011;35615;41.410;2.194;2022-10-18T00:39:27;20.40;;;8.95;;
49396;SDS011;35615;41.410;2.194;2022-10-18T00:41:54;18.35;;;9.60;;
49396;SDS011;35615;41.410;2.194;2022-10-18T00:46:52;24.15;;;8.95;;
49396;SDS011;35615;41.410;2.194;2022-10-18T00:49:26;31.10;;;11.67;;
49396;SDS011;35615;41.410;2.194;2022-10-18T00:52:05;30.60;;;11.10;;
49396;SDS011;35615;41.410;2.194;2022-10-18T00:54:53;31.27;;;11.30;;
49396;SDS011;35615;41.410;2.194;2022-10-18T00:57:22;35.47;;;12.30;;
49396;SDS011;35615;41.410;2.194;2022-10-18T00:59:50;38.28;;;12.02;;
49396;SDS011;35615;41.410;2.194;2022-10-18T01:02:23;23.27;;;11.30;;
49396;SDS011;35615;41.410;2.194;2022-10-18T01:04:51;37.88;;;12.45;;
49396;SDS011;35615;41.410;2.194;2022-10-18T01:18:08;32.60;;;11.55;;
49396;SDS011;35615;41.410;2.194;2022-10-18T01:32:34;31.92;;;10.00;;
49396;SDS011;35615;41.410;2.194;2022-10-18T01:35:09;29.92;;;10.15;;
49396;SDS011;35615;41.410;2.194;2022-10-18T01:37:40;33.42;;;9.88;;
49396;SDS011;35615;41.410;2.194;2022-10-18T01:40:11;16.88;;;9.13;;
49396;SDS011;35615;41.410;2.194;2022-10-18T01:45:15;21.25;;;8.73;;
49396;SDS011;35615;41.410;2.194;2022-10-18T01:47:45;25.35;;;9.27;;
49396;SDS011;35615;41.410;2.194;2022-10-18T01:50:14;28.02;;;8.27;;
49396;SDS011;35615;41.410;2.194;2022-10-18T01:52:47;23.20;;;9.15;;
49396;SDS011;35615;41.410;2.194;2022-10-18T01:55:15;21.35;;;8.40;;
49396;SDS011;35615;41.410;2.194;2022-10-18T01:58:11;25.80;;;7.97;;
49396;SDS011;35615;41.410;2.194;2022-10-18T02:00:43;22.65;;;7.22;;
49396;SDS011;35615;41.410;2.194;2022-10-18T02:03:25;21.20;;;8.25;;
49396;SDS011;35615;41.410;2.194;2022-10-18T02:11:32;20.35;;;8.18;;
49396;SDS011;35615;41.410;2.194;2022-10-18T02:14:09;21.50;;;7.50;;
49396;SDS011;35615;41.410;2.194;2022-10-18T02:16:49;23.67;;;7.78;;
49396;SDS011;35615;41.410;2.194;2022-10-18T02:19:24;19.45;;;7.15;;
49396;SDS011;35615;41.410;2.194;2022-10-18T02:21:54;17.13;;;8.20;;
49396;SDS011;35615;41.410;2.194;2022-10-18T02:24:38;39.03;;;7.55;;
49396;SDS011;35615;41.410;2.194;2022-10-18T02:27:10;16.70;;;7.20;;
49396;SDS011;35615;41.410;2.194;2022-10-18T02:29:39;28.40;;;8.00;;
49396;SDS011;35615;41.410;2.194;2022-10-18T02:32:19;21.92;;;8.02;;
49396;SDS011;35615;41.410;2.194;2022-10-18T02:35:05;23.48;;;8.25;;
49396;SDS011;35615;41.410;2.194;2022-10-18T02:40:07;27.90;;;7.93;;
49396;SDS011;35615;41.410;2.194;2022-10-18T02:42:37;25.42;;;8.52;;
49396;SDS011;35615;41.410;2.194;2022-10-18T02:45:10;23.88;;;7.70;;
49396;SDS011;35615;41.410;2.194;2022-10-18T02:47:40;20.75;;;8.00;;
49396;SDS011;35615;41.410;2.194;2022-10-18T02:50:08;22.58;;;7.10;;
49396;SDS011;35615;41.410;2.194;2022-10-18T02:52:36;21.20;;;8.60;;
49396;SDS011;35615;41.410;2.194;2022-10-18T02:55:05;22.90;;;8.48;;
49396;SDS011;35615;41.410;2.194;2022-10-18T02:57:37;18.30;;;7.85;;
49396;SDS011;35615;41.410;2.194;2022-10-18T03:00:06;23.48;;;7.65;;
49396;SDS011;35615;41.410;2.194;2022-10-18T03:02:35;20.55;;;7.45;;
49396;SDS011;35615;41.410;2.194;2022-10-18T03:05:03;28.55;;;7.88;;
49396;SDS011;35615;41.410;2.194;2022-10-18T03:07:31;17.63;;;7.70;;
49396;SDS011;35615;41.410;2.194;2022-10-18T03:10:00;27.40;;;7.18;;
49396;SDS011;35615;41.410;2.194;2022-10-18T03:12:28;25.55;;;8.80;;
49396;SDS011;35615;41.410;2.194;2022-10-18T03:14:56;24.52;;;7.15;;
49396;SDS011;35615;41.410;2.194;2022-10-18T03:17:24;24.15;;;8.60;;
49396;SDS011;35615;41.410;2.194;2022-10-18T03:19:56;23.10;;;7.70;;
49396;SDS011;35615;41.410;2.194;2022-10-18T03:22:25;24.98;;;9.00;;
49396;SDS011;35615;41.410;2.194;2022-10-18T03:24:55;27.20;;;8.00;;
49396;SDS011;35615;41.410;2.194;2022-10-18T03:27:22;22.52;;;7.25;;
49396;SDS011;35615;41.410;2.194;2022-10-18T03:29:55;20.38;;;7.68;;
49396;SDS011;35615;41.410;2.194;2022-10-18T03:32:26;18.67;;;7.28;;
49396;SDS011;35615;41.410;2.194;2022-10-18T03:34:57;26.48;;;8.05;;
49396;SDS011;35615;41.410;2.194;2022-10-18T03:37:29;28.40;;;7.65;;
49396;SDS011;35615;41.410;2.194;2022-10-18T03:39:57;21.08;;;7.43;;
49396;SDS011;35615;41.410;2.194;2022-10-18T03:42:29;17.95;;;7.57;;
49396;SDS011;35615;41.410;2.194;2022-10-18T03:45:00;21.80;;;6.72;;
49396;SDS011;35615;41.410;2.194;2022-10-18T03:47:29;24.05;;;8.40;;
49396;SDS011;35615;41.410;2.194;2022-10-18T03:49:57;16.73;;;7.10;;
49396;SDS011;35615;41.410;2.194;2022-10-18T03:52:28;25.20;;;8.10;;
49396;SDS011;35615;41.410;2.194;2022-10-18T03:55:00;24.25;;;7.15;;
49396;SDS011;35615;41.410;2.194;2022-10-18T03:57:32;23.63;;;8.15;;
49396;SDS011;35615;41.410;2.194;2022-10-18T04:00:02;17.90;;;6.57;;
49396;SDS011;35615;41.410;2.194;2022-10-18T04:02:37;17.42;;;7.28;;
49396;SDS011;35615;41.410;2.194;2022-10-18T04:05:06;20.75;;;6.43;;
49396;SDS011;35615;41.410;2.194;2022-10-18T04:07:34;27.73;;;7.38;;
49396;SDS011;35615;41.410;2.194;2022-10-18T04:10:01;20.55;;;6.97;;
49396;SDS011;35615;41.410;2.194;2022-10-18T04:12:29;19.08;;;6.53;;
49396;SDS011;35615;41.410;2.194;2022-10-18T04:15:00;22.23;;;6.22;;
49396;SDS011;35615;41.410;2.194;2022-10-18T04:17:27;23.98;;;6.75;;
49396;SDS011;35615;41.410;2.194;2022-10-18T04:19:55;29.27;;;6.20;;
49396;SDS011;35615;41.410;2.194;2022-10-18T04:22:22;23.67;;;7.10;;
49396;SDS011;35615;41.410;2.194;2022-10-18T04:24:49;24.88;;;6.28;;
49396;SDS011;35615;41.410;2.194;2022-10-18T04:27:18;22.58;;;6.82;;
49396;SDS011;35615;41.410;2.194;2022-10-18T04:29:45;23.75;;;5.95;;
49396;SDS011;35615;41.410;2.194;2022-10-18T04:32:13;23.00;;;7.30;;
49396;SDS011;35615;41.410;2.194;2022-10-18T04:34:40;17.02;;;5.97;;
49396;SDS011;35615;41.410;2.194;2022-10-18T04:37:12;17.23;;;6.32;;
49396;SDS011;35615;41.410;2.194;2022-10-18T04:39:39;17.80;;;6.50;;
49396;SDS011;35615;41.410;2.194;2022-10-18T04:42:06;29.30;;;6.50;;
49396;SDS011;35615;41.410;2.194;2022-10-18T04:44:34;22.73;;;6.78;;
49396;SDS011;35615;41.410;2.194;2022-10-18T04:47:01;19.38;;;6.63;;
49396;SDS011;35615;41.410;2.194;2022-10-18T04:49:28;19.45;;;6.78;;
49396;SDS011;35615;41.410;2.194;2022-10-18T04:51:55;17.60;;;6.00;;
49396;SDS011;35615;41.410;2.194;2022-10-18T04:54:23;32.20;;;7.55;;
49396;SDS011;35615;41.410;2.194;2022-10-18T04:56:54;16.67;;;5.80;;
49396;SDS011;35615;41.410;2.194;2022-10-18T04:59:21;28.77;;;5.70;;
49396;SDS011;35615;41.410;2.194;2022-10-18T05:01:49;20.30;;;6.43;;
49396;SDS011;35615;41.410;2.194;2022-10-18T05:04:17;22.80;;;5.88;;
49396;SDS011;35615;41.410;2.194;2022-10-18T05:06:44;29.63;;;6.32;;
49396;SDS011;35615;41.410;2.194;2022-10-18T05:09:12;24.50;;;7.05;;
49396;SDS011;35615;41.410;2.194;2022-10-18T05:11:39;16.58;;;5.80;;
49396;SDS011;35615;41.410;2.194;2022-10-18T05:14:07;24.50;;;6.28;;
49396;SDS011;35615;41.410;2.194;2022-10-18T05:16:36;18.52;;;6.05;;
49396;SDS011;35615;41.410;2.194;2022-10-18T05:19:04;19.38;;;6.03;;
49396;SDS011;35615;41.410;2.194;2022-10-18T05:21:31;33.25;;;7.35;;
49396;SDS011;35615;41.410;2.194;2022-10-18T05:23:59;22.25;;;5.55;;
49396;SDS011;35615;41.410;2.194;2022-10-18T05:26:28;30.48;;;7.30;;
49396;SDS011;35615;41.410;2.194;2022-10-18T05:28:55;21.02;;;6.93;;
49396;SDS011;35615;41.410;2.194;2022-10-18T05:31:23;26.70;;;6.47;;
49396;SDS011;35615;41.410;2.194;2022-10-18T05:33:50;28.00;;;7.00;;
49396;SDS011;35615;41.410;2.194;2022-10-18T05:36:18;21.73;;;7.28;;
49396;SDS011;35615;41.410;2.194;2022-10-18T05:38:46;18.05;;;6.18;;
49396;SDS011;35615;41.410;2.194;2022-10-18T05:41:14;22.33;;;6.68;;
49396;SDS011;35615;41.410;2.194;2022-10-18T05:43:41;22.95;;;6.18;;
49396;SDS011;35615;41.410;2.194;2022-10-18T05:46:08;22.60;;;6.65;;
49396;SDS011;35615;41.410;2.194;2022-10-18T05:48:42;23.10;;;8.10;;
49396;SDS011;35615;41.410;2.194;2022-10-18T05:51:10;31.35;;;6.93;;
49396;SDS011;35615;41.410;2.194;2022-10-18T05:53:37;22.38;;;6.72;;
49396;SDS011;35615;41.410;2.194;2022-10-18T05:56:05;27.95;;;7.32;;
49396;SDS011;35615;41.410;2.194;2022-10-18T05:58:33;23.73;;;7.50;;
49396;SDS011;35615;41.410;2.194;2022-10-18T06:01:01;21.98;;;6.68;;
49396;SDS011;35615;41.410;2.194;2022-10-18T06:03:29;21.98;;;6.55;;
49396;SDS011;35615;41.410;2.194;2022-10-18T06:05:58;20.45;;;7.03;;
49396;SDS011;35615;41.410;2.194;2022-10-18T06:08:29;18.83;;;6.57;;
49396;SDS011;35615;41.410;2.194;2022-10-18T06:11:17;26.03;;;6.69;;
49396;SDS011;35615;41.410;2.194;2022-10-18T06:13:46;21.63;;;7.07;;
49396;SDS011;35615;41.410;2.194;2022-10-18T06:16:19;24.05;;;6.53;;
49396;SDS011;35615;41.410;2.194;2022-10-18T06:18:48;20.00;;;6.65;;
49396;SDS011;35615;41.410;2.194;2022-10-18T06:21:20;27.80;;;7.55;;
49396;SDS011;35615;41.410;2.194;2022-10-18T06:23:49;21.80;;;7.28;;
49396;SDS011;35615;41.410;2.194;2022-10-18T06:26:17;18.17;;;7.38;;
49396;SDS011;35615;41.410;2.194;2022-10-18T06:28:45;25.60;;;7.07;;
49396;SDS011;35615;41.410;2.194;2022-10-18T06:31:15;25.08;;;7.03;;
49396;SDS011;35615;41.410;2.194;2022-10-18T06:33:43;19.85;;;6.43;;
49396;SDS011;35615;41.410;2.194;2022-10-18T06:36:12;24.40;;;6.57;;
49396;SDS011;35615;41.410;2.194;2022-10-18T06:38:43;34.13;;;7.45;;
49396;SDS011;35615;41.410;2.194;2022-10-18T06:41:11;20.17;;;6.40;;
49396;SDS011;35615;41.410;2.194;2022-10-18T06:43:38;25.25;;;6.82;;
49396;SDS011;35615;41.410;2.194;2022-10-18T06:46:07;27.10;;;7.13;;
49396;SDS011;35615;41.410;2.194;2022-10-18T06:48:35;25.38;;;7.30;;
49396;SDS011;35615;41.410;2.194;2022-10-18T06:51:04;35.20;;;7.75;;
49396;SDS011;35615;41.410;2.194;2022-10-18T06:53:34;39.03;;;9.13;;
49396;SDS011;35615;41.410;2.194;2022-10-18T06:56:18;25.85;;;6.38;;
49396;SDS011;35615;41.410;2.194;2022-10-18T06:58:45;15.50;;;6.18;;
49396;SDS011;35615;41.410;2.194;2022-10-18T07:01:14;28.00;;;6.60;;
49396;SDS011;35615;41.410;2.194;2022-10-18T07:03:43;17.38;;;6.40;;
49396;SDS011;35615;41.410;2.194;2022-10-18T07:06:12;20.77;;;6.45;;
49396;SDS011;35615;41.410;2.194;2022-10-18T07:08:40;21.02;;;6.65;;
49396;SDS011;35615;41.410;2.194;2022-10-18T07:11:13;29.58;;;6.55;;
49396;SDS011;35615;41.410;2.194;2022-10-18T07:13:44;28.52;;;7.90;;
49396;SDS011;35615;41.410;2.194;2022-10-18T07:16:12;19.50;;;6.63;;
49396;SDS011;35615;41.410;2.194;2022-10-18T07:18:48;23.38;;;6.47;;
49396;SDS011;35615;41.410;2.194;2022-10-18T07:21:20;24.20;;;6.55;;
49396;SDS011;35615;41.410;2.194;2022-10-18T07:23:49;31.63;;;7.90;;
49396;SDS011;35615;41.410;2.194;2022-10-18T07:28:47;24.13;;;6.80;;
49396;SDS011;35615;41.410;2.194;2022-10-18T07:31:17;21.60;;;6.20;;
49396;SDS011;35615;41.410;2.194;2022-10-18T07:33:45;19.25;;;6.35;;
49396;SDS011;35615;41.410;2.194;2022-10-18T07:36:12;25.83;;;7.60;;
49396;SDS011;35615;41.410;2.194;2022-10-18T07:38:39;28.23;;;6.43;;
49396;SDS011;35615;41.410;2.194;2022-10-18T07:41:08;33.03;;;7.70;;
49396;SDS011;35615;41.410;2.194;2022-10-18T07:43:41;24.50;;;6.85;;
49396;SDS011;35615;41.410;2.194;2022-10-18T07:46:11;23.45;;;6.13;;
49396;SDS011;35615;41.410;2.194;2022-10-18T07:48:40;12.52;;;5.85;;
49396;SDS011;35615;41.410;2.194;2022-10-18T07:51:08;29.77;;;8.75;;
49396;SDS011;35615;41.410;2.194;2022-10-18T07:53:36;20.58;;;6.68;;
49396;SDS011;35615;41.410;2.194;2022-10-18T07:56:05;20.55;;;6.93;;
49396;SDS011;35615;41.410;2.194;2022-10-18T07:58:40;29.20;;;7.17;;
49396;SDS011;35615;41.410;2.194;2022-10-18T08:01:11;29.05;;;7.15;;
49396;SDS011;35615;41.410;2.194;2022-10-18T08:03:40;34.90;;;8.20;;
49396;SDS011;35615;41.410;2.194;2022-10-18T08:06:09;32.25;;;8.15;;
49396;SDS011;35615;41.410;2.194;2022-10-18T08:08:39;24.23;;;6.88;;
49396;SDS011;35615;41.410;2.194;2022-10-18T08:11:12;25.05;;;7.10;;
49396;SDS011;35615;41.410;2.194;2022-10-18T08:13:41;29.67;;;8.70;;
49396;SDS011;35615;41.410;2.194;2022-10-18T08:16:09;38.88;;;8.82;;
49396;SDS011;35615;41.410;2.194;2022-10-18T08:18:39;28.00;;;11.52;;
49396;SDS011;35615;41.410;2.194;2022-10-18T08:21:08;53.47;;;12.48;;
49396;SDS011;35615;41.410;2.194;2022-10-18T08:23:36;24.23;;;7.80;;
49396;SDS011;35615;41.410;2.194;2022-10-18T08:26:05;28.10;;;7.95;;
49396;SDS011;35615;41.410;2.194;2022-10-18T08:28:38;30.20;;;6.22;;
49396;SDS011;35615;41.410;2.194;2022-10-18T08:31:15;18.23;;;7.00;;
49396;SDS011;35615;41.410;2.194;2022-10-18T08:33:44;24.52;;;7.20;;
49396;SDS011;35615;41.410;2.194;2022-10-18T08:36:13;33.40;;;7.68;;
49396;SDS011;35615;41.410;2.194;2022-10-18T08:38:42;23.40;;;6.88;;
49396;SDS011;35615;41.410;2.194;2022-10-18T08:41:16;20.60;;;6.35;;
49396;SDS011;35615;41.410;2.194;2022-10-18T08:46:44;25.42;;;6.25;;
49396;SDS011;35615;41.410;2.194;2022-10-18T08:49:19;24.65;;;6.47;;
49396;SDS011;35615;41.410;2.194;2022-10-18T08:51:55;28.58;;;5.85;;
49396;SDS011;35615;41.410;2.194;2022-10-18T08:54:25;31.13;;;6.03;;
49396;SDS011;35615;41.410;2.194;2022-10-18T08:57:01;28.73;;;6.13;;
49396;SDS011;35615;41.410;2.194;2022-10-18T08:59:36;22.00;;;6.03;;
49396;SDS011;35615;41.410;2.194;2022-10-18T09:05:01;35.65;;;6.65;;
49396;SDS011;35615;41.410;2.194;2022-10-18T09:16:16;27.70;;;6.07;;
49396;SDS011;35615;41.410;2.194;2022-10-18T09:18:57;29.88;;;7.38;;
49396;SDS011;35615;41.410;2.194;2022-10-18T09:21:41;30.15;;;6.68;;
49396;SDS011;35615;41.410;2.194;2022-10-18T09:24:24;17.45;;;6.22;;
49396;SDS011;35615;41.410;2.194;2022-10-18T09:26:57;32.58;;;7.28;;
49396;SDS011;35615;41.410;2.194;2022-10-18T09:35:14;23.40;;;6.18;;
49396;SDS011;35615;41.410;2.194;2022-10-18T09:37:49;27.85;;;7.15;;
49396;SDS011;35615;41.410;2.194;2022-10-18T09:40:25;27.25;;;6.63;;
49396;SDS011;35615;41.410;2.194;2022-10-18T09:43:07;25.15;;;6.10;;
49396;SDS011;35615;41.410;2.194;2022-10-18T09:45:46;32.70;;;7.80;;
49396;SDS011;35615;41.410;2.194;2022-10-18T09:48:28;28.00;;;8.20;;
49396;SDS011;35615;41.410;2.194;2022-10-18T09:51:07;25.25;;;6.82;;
49396;SDS011;35615;41.410;2.194;2022-10-18T09:56:45;22.33;;;6.35;;
49396;SDS011;35615;41.410;2.194;2022-10-18T09:59:35;30.27;;;6.45;;
49396;SDS011;35615;41.410;2.194;2022-10-18T10:02:20;16.98;;;5.70;;
49396;SDS011;35615;41.410;2.194;2022-10-18T10:07:25;25.80;;;7.22;;
49396;SDS011;35615;41.410;2.194;2022-10-18T10:12:48;31.25;;;6.57;;
49396;SDS011;35615;41.410;2.194;2022-10-18T10:15:30;39.42;;;7.63;;
49396;SDS011;35615;41.410;2.194;2022-10-18T10:18:16;39.88;;;9.70;;
49396;SDS011;35615;41.410;2.194;2022-10-18T10:20:54;33.00;;;7.82;;
49396;SDS011;35615;41.410;2.194;2022-10-18T10:23:27;29.17;;;8.27;;
49396;SDS011;35615;41.410;2.194;2022-10-18T10:25:57;30.98;;;7.50;;
49396;SDS011;35615;41.410;2.194;2022-10-18T10:28:29;26.08;;;7.45;;
49396;SDS011;35615;41.410;2.194;2022-10-18T10:31:15;32.15;;;6.43;;
49396;SDS011;35615;41.410;2.194;2022-10-18T10:33:47;21.33;;;6.53;;
49396;SDS011;35615;41.410;2.194;2022-10-18T10:36:24;26.35;;;5.93;;
49396;SDS011;35615;41.410;2.194;2022-10-18T10:44:26;17.08;;;5.88;;
49396;SDS011;35615;41.410;2.194;2022-10-18T10:46:56;22.55;;;6.50;;
49396;SDS011;35615;41.410;2.194;2022-10-18T10:49:26;38.63;;;6.45;;
49396;SDS011;35615;41.410;2.194;2022-10-18T10:52:15;23.52;;;6.47;;
49396;SDS011;35615;41.410;2.194;2022-10-18T10:54:54;19.05;;;6.60;;
49396;SDS011;35615;41.410;2.194;2022-10-18T10:57:43;25.35;;;6.45;;
49396;SDS011;35615;41.410;2.194;2022-10-18T11:03:15;24.65;;;6.65;;
49396;SDS011;35615;41.410;2.194;2022-10-18T11:05:55;25.67;;;5.97;;
49396;SDS011;35615;41.410;2.194;2022-10-18T11:08:27;19.42;;;5.60;;
49396;SDS011;35615;41.410;2.194;2022-10-18T11:14:16;29.17;;;7.25;;
49396;SDS011;35615;41.410;2.194;2022-10-18T11:17:05;22.20;;;5.80;;
49396;SDS011;35615;41.410;2.194;2022-10-18T11:19:48;19.27;;;6.55;;
49396;SDS011;35615;41.410;2.194;2022-10-18T11:23:29;31.88;;;6.45;;
49396;SDS011;35615;41.410;2.194;2022-10-18T11:25:43;22.88;;;6.20;;
49396;SDS011;35615;41.410;2.194;2022-10-18T11:48:22;15.75;;;5.55;;
49396;SDS011;35615;41.410;2.194;2022-10-18T11:51:23;17.90;;;5.72;;
49396;SDS011;35615;41.410;2.194;2022-10-18T12:00:15;21.95;;;6.88;;
49396;SDS011;35615;41.410;2.194;2022-10-18T12:05:17;16.30;;;5.65;;
49396;SDS011;35615;41.410;2.194;2022-10-18T12:08:33;25.83;;;4.93;;
49396;SDS011;35615;41.410;2.194;2022-10-18T12:10:43;19.60;;;4.82;;
49396;SDS011;35615;41.410;2.194;2022-10-18T12:13:33;26.60;;;7.15;;
49396;SDS011;35615;41.410;2.194;2022-10-18T12:16:06;26.17;;;5.82;;
49396;SDS011;35615;41.410;2.194;2022-10-18T12:18:35;17.95;;;6.00;;
49396;SDS011;35615;41.410;2.194;2022-10-18T12:21:26;20.50;;;5.47;;
49396;SDS011;35615;41.410;2.194;2022-10-18T12:24:15;19.48;;;5.10;;
49396;SDS011;35615;41.410;2.194;2022-10-18T12:26:52;26.17;;;6.95;;
49396;SDS011;35615;41.410;2.194;2022-10-18T12:32:29;19.50;;;5.70;;
49396;SDS011;35615;41.410;2.194;2022-10-18T12:35:01;25.45;;;6.30;;
49396;SDS011;35615;41.410;2.194;2022-10-18T12:40:24;24.83;;;6.75;;
49396;SDS011;35615;41.410;2.194;2022-10-18T12:43:08;14.98;;;5.72;;
49396;SDS011;35615;41.410;2.194;2022-10-18T12:46:13;26.77;;;6.00;;
49396;SDS011;35615;41.410;2.194;2022-10-18T12:48:40;23.50;;;5.82;;
49396;SDS011;35615;41.410;2.194;2022-10-18T12:51:15;26.35;;;5.38;;
49396;SDS011;35615;41.410;2.194;2022-10-18T12:53:45;22.67;;;6.80;;
49396;SDS011;35615;41.410;2.194;2022-10-18T13:04:40;18.15;;;5.97;;
49396;SDS011;35615;41.410;2.194;2022-10-18T13:09:34;30.15;;;6.80;;
49396;SDS011;35615;41.410;2.194;2022-10-18T13:17:48;28.23;;;6.00;;
49396;SDS011;35615;41.410;2.194;2022-10-18T13:20:32;30.23;;;6.10;;
49396;SDS011;35615;41.410;2.194;2022-10-18T13:26:00;24.45;;;6.45;;
49396;SDS011;35615;41.410;2.194;2022-10-18T13:36:55;25.35;;;5.53;;
49396;SDS011;35615;41.410;2.194;2022-10-18T13:39:28;17.42;;;5.90;;
49396;SDS011;35615;41.410;2.194;2022-10-18T13:52:28;31.50;;;6.82;;
49396;SDS011;35615;41.410;2.194;2022-10-18T14:07:51;16.67;;;4.93;;
49396;SDS011;35615;41.410;2.194;2022-10-18T14:10:45;28.45;;;7.20;;
49396;SDS011;35615;41.410;2.194;2022-10-18T14:14:03;29.58;;;5.15;;
49396;SDS011;35615;41.410;2.194;2022-10-18T14:16:51;26.38;;;6.13;;
49396;SDS011;35615;41.410;2.194;2022-10-18T14:24:39;27.50;;;5.93;;
49396;SDS011;35615;41.410;2.194;2022-10-18T14:27:15;23.40;;;6.10;;
49396;SDS011;35615;41.410;2.194;2022-10-18T14:30:08;37.80;;;6.70;;
49396;SDS011;35615;41.410;2.194;2022-10-18T14:32:46;23.30;;;6.47;;
49396;SDS011;35615;41.410;2.194;2022-10-18T14:35:25;25.17;;;7.22;;
49396;SDS011;35615;41.410;2.194;2022-10-18T14:38:11;30.58;;;6.72;;
49396;SDS011;35615;41.410;2.194;2022-10-18T14:40:43;32.70;;;7.43;;
49396;SDS011;35615;41.410;2.194;2022-10-18T14:43:28;20.00;;;6.47;;
49396;SDS011;35615;41.410;2.194;2022-10-18T14:46:06;26.67;;;7.38;;
49396;SDS011;35615;41.410;2.194;2022-10-18T14:48:54;29.25;;;6.80;;
49396;SDS011;35615;41.410;2.194;2022-10-18T14:51:27;28.20;;;7.63;;
49396;SDS011;35615;41.410;2.194;2022-10-18T14:53:58;23.85;;;7.13;;
49396;SDS011;35615;41.410;2.194;2022-10-18T14:58:54;32.38;;;8.80;;
49396;SDS011;35615;41.410;2.194;2022-10-18T15:01:25;23.80;;;7.60;;
49396;SDS011;35615;41.410;2.194;2022-10-18T15:03:59;27.92;;;7.43;;
49396;SDS011;35615;41.410;2.194;2022-10-18T15:06:36;30.98;;;9.13;;
49396;SDS011;35615;41.410;2.194;2022-10-18T15:09:10;31.50;;;6.38;;
49396;SDS011;35615;41.410;2.194;2022-10-18T15:11:43;34.45;;;8.48;;
49396;SDS011;35615;41.410;2.194;2022-10-18T15:14:15;30.50;;;8.25;;
49396;SDS011;35615;41.410;2.194;2022-10-18T15:16:45;37.63;;;8.88;;
49396;SDS011;35615;41.410;2.194;2022-10-18T15:25:02;39.70;;;8.55;;
49396;SDS011;35615;41.410;2.194;2022-10-18T15:27:34;42.47;;;9.80;;
49396;SDS011;35615;41.410;2.194;2022-10-18T15:30:05;33.58;;;8.27;;
49396;SDS011;35615;41.410;2.194;2022-10-18T15:32:36;33.22;;;8.40;;
49396;SDS011;35615;41.410;2.194;2022-10-18T15:35:07;25.63;;;8.15;;
49396;SDS011;35615;41.410;2.194;2022-10-18T15:37:51;30.05;;;8.48;;
49396;SDS011;35615;41.410;2.194;2022-10-18T15:40:28;32.55;;;7.80;;
49396;SDS011;35615;41.410;2.194;2022-10-18T15:43:05;33.25;;;9.27;;
49396;SDS011;35615;41.410;2.194;2022-10-18T15:45:57;31.38;;;8.60;;
49396;SDS011;35615;41.410;2.194;2022-10-18T15:48:36;31.08;;;8.32;;
49396;SDS011;35615;41.410;2.194;2022-10-18T15:51:07;28.95;;;7.78;;
49396;SDS011;35615;41.410;2.194;2022-10-18T15:58:52;31.50;;;8.18;;
49396;SDS011;35615;41.410;2.194;2022-10-18T16:01:27;24.33;;;7.35;;
49396;SDS011;35615;41.410;2.194;2022-10-18T16:03:59;29.05;;;8.00;;
49396;SDS011;35615;41.410;2.194;2022-10-18T16:06:27;32.70;;;8.43;;
49396;SDS011;35615;41.410;2.194;2022-10-18T16:11:39;31.98;;;8.27;;
49396;SDS011;35615;41.410;2.194;2022-10-18T16:14:06;31.55;;;9.60;;
49396;SDS011;35615;41.410;2.194;2022-10-18T16:16:39;23.40;;;7.77;;
49396;SDS011;35615;41.410;2.194;2022-10-18T16:19:06;22.10;;;8.02;;
49396;SDS011;35615;41.410;2.194;2022-10-18T16:21:42;29.30;;;7.75;;
49396;SDS011;35615;41.410;2.194;2022-10-18T16:24:09;27.83;;;8.05;;
49396;SDS011;35615;41.410;2.194;2022-10-18T16:26:36;25.67;;;8.00;;
49396;SDS011;35615;41.410;2.194;2022-10-18T16:29:25;32.22;;;8.13;;
49396;SDS011;35615;41.410;2.194;2022-10-18T16:31:54;39.45;;;8.93;;
49396;SDS011;35615;41.410;2.194;2022-10-18T16:34:25;44.08;;;9.98;;
49396;SDS011;35615;41.410;2.194;2022-10-18T16:36:53;42.00;;;11.82;;
49396;SDS011;35615;41.410;2.194;2022-10-18T16:39:29;30.83;;;10.50;;
49396;SDS011;35615;41.410;2.194;2022-10-18T16:42:00;26.35;;;9.20;;
49396;SDS011;35615;41.410;2.194;2022-10-18T16:44:33;30.35;;;10.88;;
49396;SDS011;35615;41.410;2.194;2022-10-18T16:47:08;28.55;;;8.93;;
49396;SDS011;35615;41.410;2.194;2022-10-18T16:49:43;38.53;;;9.55;;
49396;SDS011;35615;41.410;2.194;2022-10-18T16:52:24;33.35;;;9.07;;
49396;SDS011;35615;41.410;2.194;2022-10-18T16:55:08;35.07;;;8.92;;
49396;SDS011;35615;41.410;2.194;2022-10-18T16:57:48;38.42;;;9.75;;
49396;SDS011;35615;41.410;2.194;2022-10-18T17:00:18;26.25;;;8.38;;
49396;SDS011;35615;41.410;2.194;2022-10-18T17:02:48;28.95;;;9.18;;
49396;SDS011;35615;41.410;2.194;2022-10-18T17:05:18;26.48;;;8.98;;
49396;SDS011;35615;41.410;2.194;2022-10-18T17:07:46;28.48;;;9.10;;
49396;SDS011;35615;41.410;2.194;2022-10-18T17:10:20;29.95;;;8.65;;
49396;SDS011;35615;41.410;2.194;2022-10-18T17:12:52;28.55;;;8.90;;
49396;SDS011;35615;41.410;2.194;2022-10-18T17:15:19;32.42;;;8.85;;
49396;SDS011;35615;41.410;2.194;2022-10-18T17:17:51;31.65;;;8.88;;
49396;SDS011;35615;41.410;2.194;2022-10-18T17:20:27;52.20;;;10.35;;
49396;SDS011;35615;41.410;2.194;2022-10-18T17:23:02;27.88;;;9.80;;
49396;SDS011;35615;41.410;2.194;2022-10-18T17:25:30;30.05;;;9.90;;
49396;SDS011;35615;41.410;2.194;2022-10-18T17:28:17;23.85;;;8.63;;
49396;SDS011;35615;41.410;2.194;2022-10-18T17:30:50;44.72;;;11.20;;
49396;SDS011;35615;41.410;2.194;2022-10-18T17:33:19;27.00;;;8.95;;
49396;SDS011;35615;41.410;2.194;2022-10-18T17:35:47;26.60;;;8.63;;
49396;SDS011;35615;41.410;2.194;2022-10-18T17:38:18;38.30;;;10.00;;
49396;SDS011;35615;41.410;2.194;2022-10-18T17:40:45;23.38;;;8.75;;
49396;SDS011;35615;41.410;2.194;2022-10-18T17:43:16;35.58;;;9.55;;
49396;SDS011;35615;41.410;2.194;2022-10-18T17:45:47;31.17;;;10.00;;
49396;SDS011;35615;41.410;2.194;2022-10-18T17:48:16;35.53;;;9.63;;
49396;SDS011;35615;41.410;2.194;2022-10-18T17:50:44;26.52;;;9.88;;
49396;SDS011;35615;41.410;2.194;2022-10-18T17:53:11;36.25;;;9.38;;
49396;SDS011;35615;41.410;2.194;2022-10-18T17:55:38;37.45;;;13.18;;
49396;SDS011;35615;41.410;2.194;2022-10-18T17:58:09;42.67;;;10.80;;
49396;SDS011;35615;41.410;2.194;2022-10-18T18:00:37;39.60;;;9.93;;
49396;SDS011;35615;41.410;2.194;2022-10-18T18:03:08;37.97;;;9.50;;
49396;SDS011;35615;41.410;2.194;2022-10-18T18:05:44;27.98;;;10.07;;
49396;SDS011;35615;41.410;2.194;2022-10-18T18:08:13;32.75;;;10.57;;
49396;SDS011;35615;41.410;2.194;2022-10-18T18:10:43;30.88;;;10.15;;